Live Your Life

Объявление

Информация о пользователе

Привет, Гость! Войдите или зарегистрируйтесь.


Вы здесь » Live Your Life » Неформат


Неформат

Тем 1 страница 30 из 43

Тема Ответов Просмотров Последнее сообщение
13 385 Сегодня 12:13:13  на мечах
4 277 Сегодня 03:40:58  Фагот
3 LDC: Seize the day  Greenduck
5 144 Сегодня 03:01:14  Virgil
4 338 11-01-2019 18:40:42  Morgoth
5 Infinitum  Dian Keht
2 87 11-01-2019 18:21:28  Dian Keht
27 1891 11-01-2019 12:54:44  Флинт
2 231 10-01-2019 21:17:35  Ich
16 608 10-01-2019 19:15:35  Hurley
9 Gorham  go down
5 255 10-01-2019 13:34:09  with-smith
23 762 09-01-2019 19:02:14  Kiros56488123
4 83 09-01-2019 11:32:45  Натан
93 4037 08-01-2019 11:35:14  DeWitt
13 Tempus Futurum  12000 suns
16 650 07-01-2019 23:45:01  12000 suns
7 480 07-01-2019 23:41:37  Fro
15 Fire and blood  северные огни
3 277 07-01-2019 16:43:16  северные огни
16 Космический ветер  Кот капитана Флинта  [ Тема 16 Page 1 Тема 16 Page 2 ]
32 1532 07-01-2019 08:14:27  Кот капитана Флинта
41 1256 06-01-2019 11:47:22  Archie_Toothy
183 5629 05-01-2019 14:54:06  Vitaminka
207 12121 05-01-2019 13:25:53  LRS
116 5066 31-12-2018 20:46:22  Automation baby
21 496 31-12-2018 20:20:30  Pa-ku
35 1798 31-12-2018 14:07:46  Дэк
23 The Mist  Mao
13 1236 30-12-2018 22:49:17  Mao
24 752 29-12-2018 16:45:22  Heath
12 1333 29-12-2018 00:28:49  Генеральный секретарь
26 Российская Империя  Принц Датский
0 76 28-12-2018 20:25:55  Принц Датский
46 4737 25-12-2018 17:01:25  Prologue
28 Grammaire  Grammaire
7 390 20-12-2018 23:05:45  Grammaire
29 Malleus_Malefikarum  Инквизитор
3 257 15-12-2018 18:45:06  Инквизитор
0 44 07-12-2018 09:21:48  Гиза

Вы здесь » Live Your Life » Неформат


Рейтинг форумов | Создать форум бесплатно © 2007–2017 «QuadroSystems» LLC